sensor_id;sensor_type;location;lat;lon;timestamp;pressure;altitude;pressure_sealevel;temperature;humidity
15263;BME280;7733;51.554;13.590;2022-07-23T00:01:33;100572.47;;;21.49;69.28
15263;BME280;7733;51.554;13.590;2022-07-23T00:04:00;100569.94;;;21.78;67.90
15263;BME280;7733;51.554;13.590;2022-07-23T00:06:26;100578.88;;;21.93;67.67
15263;BME280;7733;51.554;13.590;2022-07-23T00:08:52;100570.13;;;21.75;68.01
15263;BME280;7733;51.554;13.590;2022-07-23T00:11:18;100567.81;;;21.69;68.18
15263;BME280;7733;51.554;13.590;2022-07-23T00:13:43;100571.16;;;21.56;68.99
15263;BME280;7733;51.554;13.590;2022-07-23T00:16:09;100569.44;;;21.55;68.92
15263;BME280;7733;51.554;13.590;2022-07-23T00:18:35;100569.88;;;21.64;68.54
15263;BME280;7733;51.554;13.590;2022-07-23T00:21:00;100545.50;;;21.38;69.33
15263;BME280;7733;51.554;13.590;2022-07-23T00:23:26;100556.00;;;21.41;69.59
15263;BME280;7733;51.554;13.590;2022-07-23T00:25:54;100555.59;;;21.65;68.54
15263;BME280;7733;51.554;13.590;2022-07-23T00:28:20;100555.88;;;21.90;67.02
15263;BME280;7733;51.554;13.590;2022-07-23T00:30:45;100552.38;;;21.42;69.41
15263;BME280;7733;51.554;13.590;2022-07-23T00:33:11;100556.25;;;21.68;68.39
15263;BME280;7733;51.554;13.590;2022-07-23T00:35:41;100556.00;;;21.73;68.20
15263;BME280;7733;51.554;13.590;2022-07-23T00:38:08;100560.06;;;21.48;69.75
15263;BME280;7733;51.554;13.590;2022-07-23T00:40:38;100562.81;;;21.63;69.21
15263;BME280;7733;51.554;13.590;2022-07-23T00:43:04;100568.41;;;21.58;69.28
15263;BME280;7733;51.554;13.590;2022-07-23T00:45:31;100556.56;;;21.94;66.82
15263;BME280;7733;51.554;13.590;2022-07-23T00:47:57;100553.81;;;21.79;68.31
15263;BME280;7733;51.554;13.590;2022-07-23T00:50:24;100555.88;;;21.90;67.43
15263;BME280;7733;51.554;13.590;2022-07-23T00:52:51;100566.56;;;21.90;67.44
15263;BME280;7733;51.554;13.590;2022-07-23T00:55:17;100568.41;;;21.42;69.30
15263;BME280;7733;51.554;13.590;2022-07-23T00:57:43;100563.81;;;21.76;67.65
15263;BME280;7733;51.554;13.590;2022-07-23T01:00:14;100564.28;;;21.52;69.06
15263;BME280;7733;51.554;13.590;2022-07-23T01:02:41;100557.00;;;21.86;66.76
15263;BME280;7733;51.554;13.590;2022-07-23T01:05:07;100561.44;;;21.55;68.52
15263;BME280;7733;51.554;13.590;2022-07-23T01:07:33;100563.75;;;21.62;68.54
15263;BME280;7733;51.554;13.590;2022-07-23T01:10:00;100559.09;;;21.65;68.53
15263;BME280;7733;51.554;13.590;2022-07-23T01:12:26;100550.09;;;21.82;67.09
15263;BME280;7733;51.554;13.590;2022-07-23T01:14:56;100554.09;;;21.75;68.29
15263;BME280;7733;51.554;13.590;2022-07-23T01:17:22;100545.81;;;21.79;67.63
15263;BME280;7733;51.554;13.590;2022-07-23T01:19:48;100543.34;;;21.61;68.49
15263;BME280;7733;51.554;13.590;2022-07-23T01:22:18;100538.41;;;21.84;67.26
15263;BME280;7733;51.554;13.590;2022-07-23T01:24:44;100543.28;;;21.46;69.60
15263;BME280;7733;51.554;13.590;2022-07-23T01:27:09;100520.53;;;21.55;68.36
15263;BME280;7733;51.554;13.590;2022-07-23T01:29:35;100513.25;;;21.73;67.99
15263;BME280;7733;51.554;13.590;2022-07-23T01:32:01;100512.78;;;21.50;69.12
15263;BME280;7733;51.554;13.590;2022-07-23T01:34:26;100506.78;;;21.31;70.09
15263;BME280;7733;51.554;13.590;2022-07-23T01:36:52;100498.31;;;21.07;71.07
15263;BME280;7733;51.554;13.590;2022-07-23T01:39:17;100504.19;;;21.30;70.57
15263;BME280;7733;51.554;13.590;2022-07-23T01:41:43;100492.09;;;21.54;69.24
15263;BME280;7733;51.554;13.590;2022-07-23T01:44:09;100483.81;;;21.59;69.14
15263;BME280;7733;51.554;13.590;2022-07-23T01:46:34;100479.88;;;21.66;68.40
15263;BME280;7733;51.554;13.590;2022-07-23T01:49:00;100467.31;;;21.52;69.15
15263;BME280;7733;51.554;13.590;2022-07-23T01:51:26;100461.75;;;21.71;68.28
15263;BME280;7733;51.554;13.590;2022-07-23T01:53:52;100459.16;;;21.39;70.12
15263;BME280;7733;51.554;13.590;2022-07-23T01:56:17;100462.31;;;21.14;71.39
15263;BME280;7733;51.554;13.590;2022-07-23T01:58:47;100465.53;;;21.37;70.35
15263;BME280;7733;51.554;13.590;2022-07-23T02:01:13;100462.72;;;21.24;70.90
15263;BME280;7733;51.554;13.590;2022-07-23T02:03:38;100457.69;;;21.49;69.14
15263;BME280;7733;51.554;13.590;2022-07-23T02:06:04;100455.47;;;21.26;70.50
15263;BME280;7733;51.554;13.590;2022-07-23T02:08:30;100455.38;;;21.43;70.11
15263;BME280;7733;51.554;13.590;2022-07-23T02:10:55;100449.75;;;21.48;70.09
15263;BME280;7733;51.554;13.590;2022-07-23T02:13:21;100446.44;;;21.59;69.18
15263;BME280;7733;51.554;13.590;2022-07-23T02:15:47;100426.94;;;21.42;69.59
15263;BME280;7733;51.554;13.590;2022-07-23T02:18:13;100435.38;;;21.50;69.08
15263;BME280;7733;51.554;13.590;2022-07-23T02:20:38;100435.13;;;21.23;71.73
15263;BME280;7733;51.554;13.590;2022-07-23T02:23:05;100445.28;;;21.01;72.60
15263;BME280;7733;51.554;13.590;2022-07-23T02:25:32;100453.63;;;20.63;75.29
15263;BME280;7733;51.554;13.590;2022-07-23T02:27:58;100447.59;;;20.76;75.24
15263;BME280;7733;51.554;13.590;2022-07-23T02:30:23;100434.97;;;21.11;73.12
15263;BME280;7733;51.554;13.590;2022-07-23T02:32:49;100442.44;;;21.20;71.60
15263;BME280;7733;51.554;13.590;2022-07-23T02:35:15;100433.06;;;20.97;73.17
15263;BME280;7733;51.554;13.590;2022-07-23T02:37:40;100439.28;;;21.29;71.23
15263;BME280;7733;51.554;13.590;2022-07-23T02:40:06;100435.81;;;21.11;72.49
15263;BME280;7733;51.554;13.590;2022-07-23T02:42:32;100431.34;;;21.43;70.85
15263;BME280;7733;51.554;13.590;2022-07-23T02:44:58;100439.69;;;21.37;71.16
15263;BME280;7733;51.554;13.590;2022-07-23T02:47:23;100442.38;;;21.06;72.84
15263;BME280;7733;51.554;13.590;2022-07-23T02:49:49;100449.25;;;21.10;73.36
15263;BME280;7733;51.554;13.590;2022-07-23T02:52:15;100428.34;;;21.02;73.47
15263;BME280;7733;51.554;13.590;2022-07-23T02:54:40;100421.72;;;21.09;73.25
15263;BME280;7733;51.554;13.590;2022-07-23T02:57:06;100422.91;;;21.35;71.59
15263;BME280;7733;51.554;13.590;2022-07-23T02:59:31;100426.97;;;21.11;72.92
15263;BME280;7733;51.554;13.590;2022-07-23T03:01:57;100435.59;;;20.84;74.27
15263;BME280;7733;51.554;13.590;2022-07-23T03:04:23;100422.06;;;20.87;73.77
15263;BME280;7733;51.554;13.590;2022-07-23T03:06:48;100426.19;;;20.77;74.61
15263;BME280;7733;51.554;13.590;2022-07-23T03:09:14;100412.00;;;20.77;75.00
15263;BME280;7733;51.554;13.590;2022-07-23T03:11:40;100422.56;;;21.10;73.31
15263;BME280;7733;51.554;13.590;2022-07-23T03:14:05;100423.47;;;21.26;72.47
15263;BME280;7733;51.554;13.590;2022-07-23T03:16:31;100426.53;;;21.34;72.04
15263;BME280;7733;51.554;13.590;2022-07-23T03:18:57;100424.25;;;21.42;71.03
15263;BME280;7733;51.554;13.590;2022-07-23T03:21:23;100414.06;;;20.87;73.29
15263;BME280;7733;51.554;13.590;2022-07-23T03:23:48;100440.44;;;20.45;76.51
15263;BME280;7733;51.554;13.590;2022-07-23T03:26:14;100453.38;;;20.68;75.46
15263;BME280;7733;51.554;13.590;2022-07-23T03:28:39;100443.84;;;21.11;73.51
15263;BME280;7733;51.554;13.590;2022-07-23T03:31:05;100425.16;;;20.95;73.95
15263;BME280;7733;51.554;13.590;2022-07-23T03:33:31;100428.09;;;20.91;74.38
15263;BME280;7733;51.554;13.590;2022-07-23T03:35:56;100441.59;;;20.72;75.59
15263;BME280;7733;51.554;13.590;2022-07-23T03:38:22;100436.69;;;20.64;76.36
15263;BME280;7733;51.554;13.590;2022-07-23T03:40:48;100447.69;;;20.08;80.39
15263;BME280;7733;51.554;13.590;2022-07-23T03:43:13;100443.19;;;20.59;78.06
15263;BME280;7733;51.554;13.590;2022-07-23T03:45:39;100433.66;;;20.38;78.94
15263;BME280;7733;51.554;13.590;2022-07-23T03:48:05;100458.31;;;20.58;78.55
15263;BME280;7733;51.554;13.590;2022-07-23T03:50:30;100470.81;;;20.41;79.54
15263;BME280;7733;51.554;13.590;2022-07-23T03:52:56;100482.31;;;20.08;81.44
15263;BME280;7733;51.554;13.590;2022-07-23T03:55:22;100505.47;;;19.89;82.48
15263;BME280;7733;51.554;13.590;2022-07-23T03:57:47;100538.22;;;19.55;85.57
15263;BME280;7733;51.554;13.590;2022-07-23T04:00:14;100509.69;;;19.75;84.57
15263;BME280;7733;51.554;13.590;2022-07-23T04:02:39;100462.19;;;19.85;84.83
15263;BME280;7733;51.554;13.590;2022-07-23T04:05:06;100473.06;;;19.44;90.94
15263;BME280;7733;51.554;13.590;2022-07-23T04:07:32;100476.59;;;19.45;92.72
15263;BME280;7733;51.554;13.590;2022-07-23T04:09:57;100485.16;;;19.33;95.07
15263;BME280;7733;51.554;13.590;2022-07-23T04:12:24;100487.94;;;19.67;94.48
15263;BME280;7733;51.554;13.590;2022-07-23T04:14:50;100476.50;;;19.65;95.11
15263;BME280;7733;51.554;13.590;2022-07-23T04:17:16;100475.56;;;19.66;95.82
15263;BME280;7733;51.554;13.590;2022-07-23T04:19:41;100470.38;;;19.81;93.82
15263;BME280;7733;51.554;13.590;2022-07-23T04:22:10;100467.47;;;20.20;90.49
15263;BME280;7733;51.554;13.590;2022-07-23T04:24:37;100461.38;;;19.66;94.64
15263;BME280;7733;51.554;13.590;2022-07-23T04:27:03;100472.81;;;19.32;98.60
15263;BME280;7733;51.554;13.590;2022-07-23T04:29:29;100471.16;;;19.29;100.00
15263;BME280;7733;51.554;13.590;2022-07-23T04:31:55;100473.38;;;19.20;100.00
15263;BME280;7733;51.554;13.590;2022-07-23T04:34:20;100460.75;;;19.61;98.96
15263;BME280;7733;51.554;13.590;2022-07-23T04:36:46;100457.28;;;19.59;98.54
15263;BME280;7733;51.554;13.590;2022-07-23T04:39:12;100458.41;;;19.36;99.22
15263;BME280;7733;51.554;13.590;2022-07-23T04:41:37;100456.47;;;19.03;100.00
15263;BME280;7733;51.554;13.590;2022-07-23T04:44:03;100460.59;;;19.28;100.00
15263;BME280;7733;51.554;13.590;2022-07-23T04:46:29;100454.09;;;19.33;98.48
15263;BME280;7733;51.554;13.590;2022-07-23T04:48:55;100458.47;;;18.79;100.00
15263;BME280;7733;51.554;13.590;2022-07-23T04:51:21;100461.19;;;18.78;100.00
15263;BME280;7733;51.554;13.590;2022-07-23T04:53:46;100459.91;;;19.05;100.00
15263;BME280;7733;51.554;13.590;2022-07-23T04:56:12;100446.09;;;18.97;100.00
15263;BME280;7733;51.554;13.590;2022-07-23T04:58:38;100463.41;;;19.25;100.00
15263;BME280;7733;51.554;13.590;2022-07-23T05:01:04;100462.88;;;19.35;99.11
15263;BME280;7733;51.554;13.590;2022-07-23T05:03:30;100458.09;;;19.25;98.61
15263;BME280;7733;51.554;13.590;2022-07-23T05:05:55;100461.69;;;19.41;96.87
15263;BME280;7733;51.554;13.590;2022-07-23T05:08:21;100453.06;;;19.55;96.79
15263;BME280;7733;51.554;13.590;2022-07-23T05:10:47;100466.72;;;19.11;98.90
15263;BME280;7733;51.554;13.590;2022-07-23T05:13:16;100460.47;;;19.12;99.69
15263;BME280;7733;51.554;13.590;2022-07-23T05:15:43;100456.00;;;19.12;98.68
15263;BME280;7733;51.554;13.590;2022-07-23T05:18:09;100461.25;;;18.76;98.77
15263;BME280;7733;51.554;13.590;2022-07-23T05:20:35;100458.97;;;18.69;99.30
15263;BME280;7733;51.554;13.590;2022-07-23T05:23:00;100479.72;;;18.79;98.19
15263;BME280;7733;51.554;13.590;2022-07-23T05:25:26;100483.16;;;18.81;97.83
15263;BME280;7733;51.554;13.590;2022-07-23T05:27:52;100485.13;;;18.97;97.94
15263;BME280;7733;51.554;13.590;2022-07-23T05:30:18;100483.22;;;19.18;97.06
15263;BME280;7733;51.554;13.590;2022-07-23T05:32:43;100481.28;;;19.21;96.85
15263;BME280;7733;51.554;13.590;2022-07-23T05:35:09;100481.56;;;19.34;95.35
15263;BME280;7733;51.554;13.590;2022-07-23T05:37:35;100481.88;;;19.28;94.29
15263;BME280;7733;51.554;13.590;2022-07-23T05:40:04;100498.09;;;19.22;95.53
15263;BME280;7733;51.554;13.590;2022-07-23T05:42:33;100523.84;;;19.21;95.12
15263;BME280;7733;51.554;13.590;2022-07-23T05:44:59;100538.06;;;19.01;95.15
15263;BME280;7733;51.554;13.590;2022-07-23T05:47:25;100537.66;;;19.10;92.40
15263;BME280;7733;51.554;13.590;2022-07-23T05:49:50;100547.59;;;19.26;92.37
15263;BME280;7733;51.554;13.590;2022-07-23T05:52:16;100537.22;;;19.01;92.31
15263;BME280;7733;51.554;13.590;2022-07-23T05:54:42;100539.94;;;18.99;92.97
15263;BME280;7733;51.554;13.590;2022-07-23T05:57:07;100536.22;;;19.03;92.21
15263;BME280;7733;51.554;13.590;2022-07-23T05:59:33;100547.72;;;19.04;90.81
15263;BME280;7733;51.554;13.590;2022-07-23T06:01:59;100554.97;;;19.00;90.75
15263;BME280;7733;51.554;13.590;2022-07-23T06:04:25;100563.25;;;19.32;90.19
15263;BME280;7733;51.554;13.590;2022-07-23T06:06:51;100556.28;;;19.29;89.52
15263;BME280;7733;51.554;13.590;2022-07-23T06:09:16;100546.13;;;19.37;88.63
15263;BME280;7733;51.554;13.590;2022-07-23T06:11:42;100540.88;;;19.55;88.46
15263;BME280;7733;51.554;13.590;2022-07-23T06:14:08;100545.00;;;19.43;88.73
15263;BME280;7733;51.554;13.590;2022-07-23T06:16:33;100556.91;;;19.53;88.81
15263;BME280;7733;51.554;13.590;2022-07-23T06:18:59;100541.66;;;19.38;88.99
15263;BME280;7733;51.554;13.590;2022-07-23T06:21:25;100533.53;;;19.60;87.88
15263;BME280;7733;51.554;13.590;2022-07-23T06:23:50;100536.44;;;19.55;87.66
15263;BME280;7733;51.554;13.590;2022-07-23T06:26:16;100531.84;;;19.76;87.17
15263;BME280;7733;51.554;13.590;2022-07-23T06:28:41;100540.81;;;19.92;86.10
15263;BME280;7733;51.554;13.590;2022-07-23T06:31:07;100527.25;;;20.14;83.95
15263;BME280;7733;51.554;13.590;2022-07-23T06:33:33;100518.16;;;20.18;82.37
15263;BME280;7733;51.554;13.590;2022-07-23T06:35:59;100496.22;;;20.13;82.46
15263;BME280;7733;51.554;13.590;2022-07-23T06:38:24;100490.75;;;20.16;85.16
15263;BME280;7733;51.554;13.590;2022-07-23T06:40:50;100475.88;;;20.12;87.63
15263;BME280;7733;51.554;13.590;2022-07-23T06:43:16;100489.19;;;19.95;91.11
15263;BME280;7733;51.554;13.590;2022-07-23T06:45:42;100476.47;;;20.34;87.38
15263;BME280;7733;51.554;13.590;2022-07-23T06:48:07;100481.25;;;20.28;87.26
15263;BME280;7733;51.554;13.590;2022-07-23T06:50:33;100481.81;;;20.00;91.44
15263;BME280;7733;51.554;13.590;2022-07-23T06:52:59;100473.28;;;20.11;92.35
15263;BME280;7733;51.554;13.590;2022-07-23T06:55:25;100476.03;;;20.59;89.72
15263;BME280;7733;51.554;13.590;2022-07-23T06:57:51;100473.16;;;20.64;91.16
15263;BME280;7733;51.554;13.590;2022-07-23T07:00:16;100480.84;;;20.53;93.13
15263;BME280;7733;51.554;13.590;2022-07-23T07:02:42;100484.28;;;20.38;91.72
15263;BME280;7733;51.554;13.590;2022-07-23T07:05:08;100481.56;;;20.22;91.29
15263;BME280;7733;51.554;13.590;2022-07-23T07:07:34;100488.78;;;20.70;89.03
15263;BME280;7733;51.554;13.590;2022-07-23T07:10:01;100483.25;;;20.57;87.07
15263;BME280;7733;51.554;13.590;2022-07-23T07:12:27;100479.34;;;20.96;87.92
15263;BME280;7733;51.554;13.590;2022-07-23T07:14:53;100470.94;;;21.04;86.10
15263;BME280;7733;51.554;13.590;2022-07-23T07:17:18;100482.22;;;21.40;84.35
15263;BME280;7733;51.554;13.590;2022-07-23T07:19:44;100474.06;;;21.28;80.82
15263;BME280;7733;51.554;13.590;2022-07-23T07:22:10;100479.03;;;21.49;82.14
15263;BME280;7733;51.554;13.590;2022-07-23T07:24:35;100483.50;;;21.65;79.28
15263;BME280;7733;51.554;13.590;2022-07-23T07:27:01;100493.00;;;21.84;81.41
15263;BME280;7733;51.554;13.590;2022-07-23T07:29:27;100490.47;;;21.67;82.36
15263;BME280;7733;51.554;13.590;2022-07-23T07:31:53;100484.03;;;21.85;81.22
15263;BME280;7733;51.554;13.590;2022-07-23T07:34:19;100476.13;;;22.14;80.25
15263;BME280;7733;51.554;13.590;2022-07-23T07:36:45;100461.72;;;22.31;77.23
15263;BME280;7733;51.554;13.590;2022-07-23T07:39:10;100464.69;;;22.26;78.31
15263;BME280;7733;51.554;13.590;2022-07-23T07:41:36;100468.47;;;22.08;79.00
15263;BME280;7733;51.554;13.590;2022-07-23T07:44:02;100456.56;;;21.98;77.27
15263;BME280;7733;51.554;13.590;2022-07-23T07:46:27;100448.25;;;22.32;77.52
15263;BME280;7733;51.554;13.590;2022-07-23T07:48:53;100449.91;;;22.49;74.58
15263;BME280;7733;51.554;13.590;2022-07-23T07:51:19;100454.00;;;22.55;74.11
15263;BME280;7733;51.554;13.590;2022-07-23T07:53:45;100463.91;;;22.38;75.49
15263;BME280;7733;51.554;13.590;2022-07-23T07:56:10;100450.66;;;22.23;75.86
15263;BME280;7733;51.554;13.590;2022-07-23T07:58:36;100451.31;;;22.40;76.37
15263;BME280;7733;51.554;13.590;2022-07-23T08:01:02;100443.19;;;22.70;74.99
15263;BME280;7733;51.554;13.590;2022-07-23T08:03:28;100450.75;;;22.50;74.95
15263;BME280;7733;51.554;13.590;2022-07-23T08:05:54;100457.16;;;22.90;73.45
15263;BME280;7733;51.554;13.590;2022-07-23T08:08:19;100455.84;;;22.83;72.55
15263;BME280;7733;51.554;13.590;2022-07-23T08:10:45;100453.28;;;22.80;72.83
15263;BME280;7733;51.554;13.590;2022-07-23T08:13:15;100469.94;;;22.99;72.74
15263;BME280;7733;51.554;13.590;2022-07-23T08:15:42;100482.72;;;22.80;74.21
15263;BME280;7733;51.554;13.590;2022-07-23T08:18:09;100485.97;;;22.28;75.09
15263;BME280;7733;51.554;13.590;2022-07-23T08:20:34;100486.75;;;22.58;73.92
15263;BME280;7733;51.554;13.590;2022-07-23T08:23:05;100483.41;;;22.69;75.28
15263;BME280;7733;51.554;13.590;2022-07-23T08:25:36;100504.16;;;22.65;74.64
15263;BME280;7733;51.554;13.590;2022-07-23T08:28:06;100505.22;;;22.91;74.74
15263;BME280;7733;51.554;13.590;2022-07-23T08:30:34;100492.53;;;23.22;74.03
15263;BME280;7733;51.554;13.590;2022-07-23T08:33:09;100481.00;;;23.48;72.56
15263;BME280;7733;51.554;13.590;2022-07-23T08:35:45;100489.06;;;22.93;73.55
15263;BME280;7733;51.554;13.590;2022-07-23T08:38:14;100502.56;;;23.32;72.06
15263;BME280;7733;51.554;13.590;2022-07-23T08:40:44;100496.38;;;23.18;72.28
15263;BME280;7733;51.554;13.590;2022-07-23T08:43:16;100486.91;;;23.26;71.43
15263;BME280;7733;51.554;13.590;2022-07-23T08:45:47;100472.00;;;23.76;70.94
15263;BME280;7733;51.554;13.590;2022-07-23T08:48:19;100472.69;;;23.92;70.44
15263;BME280;7733;51.554;13.590;2022-07-23T08:50:54;100482.16;;;23.71;70.25
15263;BME280;7733;51.554;13.590;2022-07-23T08:53:21;100480.56;;;23.54;71.40
15263;BME280;7733;51.554;13.590;2022-07-23T08:55:54;100491.28;;;23.54;70.44
15263;BME280;7733;51.554;13.590;2022-07-23T08:58:20;100493.72;;;23.45;70.57
15263;BME280;7733;51.554;13.590;2022-07-23T09:00:47;100503.41;;;23.33;71.78
15263;BME280;7733;51.554;13.590;2022-07-23T09:03:20;100514.25;;;23.17;72.09
15263;BME280;7733;51.554;13.590;2022-07-23T09:05:47;100502.22;;;22.96;72.83
15263;BME280;7733;51.554;13.590;2022-07-23T09:08:20;100509.44;;;23.22;71.96
15263;BME280;7733;51.554;13.590;2022-07-23T09:10:57;100504.50;;;23.16;72.95
15263;BME280;7733;51.554;13.590;2022-07-23T09:13:49;100512.22;;;23.21;73.00
15263;BME280;7733;51.554;13.590;2022-07-23T09:16:31;100511.72;;;23.43;73.47
15263;BME280;7733;51.554;13.590;2022-07-23T09:19:02;100524.97;;;23.85;71.38
15263;BME280;7733;51.554;13.590;2022-07-23T09:21:37;100527.50;;;23.74;71.98
15263;BME280;7733;51.554;13.590;2022-07-23T09:26:45;100530.22;;;23.60;71.04
15263;BME280;7733;51.554;13.590;2022-07-23T09:29:22;100532.41;;;23.12;73.08
15263;BME280;7733;51.554;13.590;2022-07-23T09:34:27;100553.31;;;22.77;75.06
15263;BME280;7733;51.554;13.590;2022-07-23T09:37:09;100555.53;;;22.70;75.39
15263;BME280;7733;51.554;13.590;2022-07-23T09:39:35;100548.06;;;22.61;75.71
15263;BME280;7733;51.554;13.590;2022-07-23T09:42:13;100539.09;;;22.48;77.53
15263;BME280;7733;51.554;13.590;2022-07-23T09:44:49;100545.03;;;22.82;77.01
15263;BME280;7733;51.554;13.590;2022-07-23T09:47:15;100531.25;;;22.59;77.37
15263;BME280;7733;51.554;13.590;2022-07-23T09:50:08;100545.91;;;22.82;77.22
15263;BME280;7733;51.554;13.590;2022-07-23T09:52:48;100560.53;;;22.91;76.38
15263;BME280;7733;51.554;13.590;2022-07-23T09:55:16;100554.78;;;22.97;77.32
15263;BME280;7733;51.554;13.590;2022-07-23T09:57:42;100571.91;;;23.23;76.16
15263;BME280;7733;51.554;13.590;2022-07-23T10:00:12;100571.97;;;23.21;76.29
15263;BME280;7733;51.554;13.590;2022-07-23T10:02:39;100580.84;;;23.50;74.79
15263;BME280;7733;51.554;13.590;2022-07-23T10:05:06;100583.19;;;23.55;75.08
15263;BME280;7733;51.554;13.590;2022-07-23T10:07:37;100587.31;;;23.05;75.36
15263;BME280;7733;51.554;13.590;2022-07-23T10:10:05;100581.41;;;23.41;73.87
15263;BME280;7733;51.554;13.590;2022-07-23T10:12:32;100575.22;;;23.26;74.29
15263;BME280;7733;51.554;13.590;2022-07-23T10:15:25;100592.50;;;23.35;74.35
15263;BME280;7733;51.554;13.590;2022-07-23T10:17:51;100588.19;;;23.61;73.03
15263;BME280;7733;51.554;13.590;2022-07-23T10:20:17;100590.59;;;23.65;72.84
15263;BME280;7733;51.554;13.590;2022-07-23T10:22:59;100593.03;;;23.27;73.50
15263;BME280;7733;51.554;13.590;2022-07-23T10:28:30;100589.06;;;23.88;71.94
15263;BME280;7733;51.554;13.590;2022-07-23T10:31:38;100594.94;;;23.25;72.73
15263;BME280;7733;51.554;13.590;2022-07-23T10:37:07;100586.31;;;23.34;72.55
15263;BME280;7733;51.554;13.590;2022-07-23T10:39:37;100589.94;;;23.19;73.24
15263;BME280;7733;51.554;13.590;2022-07-23T10:42:14;100590.44;;;23.26;72.10
15263;BME280;7733;51.554;13.590;2022-07-23T10:44:48;100604.63;;;23.55;72.42
15263;BME280;7733;51.554;13.590;2022-07-23T10:47:28;100606.66;;;23.37;72.32
15263;BME280;7733;51.554;13.590;2022-07-23T10:53:10;100609.25;;;23.38;73.25
15263;BME280;7733;51.554;13.590;2022-07-23T10:58:05;100597.19;;;23.46;72.53
15263;BME280;7733;51.554;13.590;2022-07-23T11:00:36;100603.31;;;23.33;73.34
15263;BME280;7733;51.554;13.590;2022-07-23T11:03:05;100601.94;;;23.55;72.27
15263;BME280;7733;51.554;13.590;2022-07-23T11:05:44;100599.63;;;23.77;71.74
15263;BME280;7733;51.554;13.590;2022-07-23T11:08:19;100600.69;;;23.75;71.38
15263;BME280;7733;51.554;13.590;2022-07-23T11:10:51;100600.81;;;23.59;71.56
15263;BME280;7733;51.554;13.590;2022-07-23T11:13:26;100602.63;;;23.73;71.44
15263;BME280;7733;51.554;13.590;2022-07-23T11:16:10;100605.81;;;23.36;71.72
15263;BME280;7733;51.554;13.590;2022-07-23T11:24:07;100613.88;;;23.08;73.44
15263;BME280;7733;51.554;13.590;2022-07-23T11:26:43;100621.81;;;22.65;73.57
15263;BME280;7733;51.554;13.590;2022-07-23T11:32:11;100635.84;;;22.69;72.86
15263;BME280;7733;51.554;13.590;2022-07-23T11:34:46;100635.34;;;22.48;72.71
15263;BME280;7733;51.554;13.590;2022-07-23T11:37:34;100641.84;;;22.58;72.83
15263;BME280;7733;51.554;13.590;2022-07-23T11:40:04;100643.94;;;22.53;72.45
15263;BME280;7733;51.554;13.590;2022-07-23T11:42:32;100636.59;;;22.27;71.20
15263;BME280;7733;51.554;13.590;2022-07-23T11:44:57;100646.91;;;22.33;70.16
15263;BME280;7733;51.554;13.590;2022-07-23T11:47:26;100644.06;;;22.36;70.94
15263;BME280;7733;51.554;13.590;2022-07-23T11:49:57;100639.47;;;22.38;70.11
15263;BME280;7733;51.554;13.590;2022-07-23T11:52:24;100643.50;;;22.15;69.91
15263;BME280;7733;51.554;13.590;2022-07-23T11:55:04;100643.38;;;22.32;69.66
15263;BME280;7733;51.554;13.590;2022-07-23T11:57:37;100639.38;;;22.09;70.66
15263;BME280;7733;51.554;13.590;2022-07-23T12:00:12;100635.28;;;22.02;71.63
15263;BME280;7733;51.554;13.590;2022-07-23T12:02:57;100633.56;;;22.01;72.14
15263;BME280;7733;51.554;13.590;2022-07-23T12:05:29;100631.28;;;22.11;72.78
15263;BME280;7733;51.554;13.590;2022-07-23T12:07:56;100637.69;;;22.38;71.42
15263;BME280;7733;51.554;13.590;2022-07-23T12:10:38;100630.31;;;22.28;72.64
15263;BME280;7733;51.554;13.590;2022-07-23T12:13:11;100626.78;;;22.27;72.67
15263;BME280;7733;51.554;13.590;2022-07-23T12:15:40;100625.06;;;22.10;73.35
15263;BME280;7733;51.554;13.590;2022-07-23T12:18:10;100625.28;;;22.22;73.53
15263;BME280;7733;51.554;13.590;2022-07-23T12:20:42;100624.00;;;22.29;72.84
15263;BME280;7733;51.554;13.590;2022-07-23T12:23:10;100631.38;;;22.69;72.23
15263;BME280;7733;51.554;13.590;2022-07-23T12:25:42;100633.25;;;22.53;72.10
15263;BME280;7733;51.554;13.590;2022-07-23T12:28:31;100636.69;;;22.55;71.55
15263;BME280;7733;51.554;13.590;2022-07-23T12:31:03;100629.41;;;22.57;70.73
15263;BME280;7733;51.554;13.590;2022-07-23T12:33:34;100624.50;;;22.80;71.01
15263;BME280;7733;51.554;13.590;2022-07-23T12:36:04;100621.50;;;22.86;70.66
15263;BME280;7733;51.554;13.590;2022-07-23T12:38:42;100625.88;;;23.01;69.53
15263;BME280;7733;51.554;13.590;2022-07-23T12:41:08;100616.50;;;23.22;68.46
15263;BME280;7733;51.554;13.590;2022-07-23T12:43:40;100610.19;;;23.37;67.49
15263;BME280;7733;51.554;13.590;2022-07-23T12:51:17;100606.28;;;23.43;66.39
15263;BME280;7733;51.554;13.590;2022-07-23T12:53:53;100613.25;;;23.60;66.04
15263;BME280;7733;51.554;13.590;2022-07-23T12:58:54;100605.59;;;23.40;67.17
15263;BME280;7733;51.554;13.590;2022-07-23T13:04:06;100616.69;;;23.48;65.04
15263;BME280;7733;51.554;13.590;2022-07-23T13:06:36;100625.50;;;23.64;64.98
15263;BME280;7733;51.554;13.590;2022-07-23T13:09:05;100622.72;;;23.51;65.57
15263;BME280;7733;51.554;13.590;2022-07-23T13:11:31;100622.63;;;23.38;65.81
15263;BME280;7733;51.554;13.590;2022-07-23T13:13:58;100624.16;;;23.57;64.60
15263;BME280;7733;51.554;13.590;2022-07-23T13:16:29;100612.13;;;23.35;65.23
15263;BME280;7733;51.554;13.590;2022-07-23T13:18:56;100619.38;;;23.62;63.51
15263;BME280;7733;51.554;13.590;2022-07-23T13:21:23;100618.31;;;24.06;63.27
15263;BME280;7733;51.554;13.590;2022-07-23T13:23:48;100614.44;;;24.10;62.50
15263;BME280;7733;51.554;13.590;2022-07-23T13:26:15;100617.06;;;24.24;62.20
15263;BME280;7733;51.554;13.590;2022-07-23T13:28:40;100612.00;;;24.46;61.10
15263;BME280;7733;51.554;13.590;2022-07-23T13:31:06;100608.59;;;24.70;61.08